createdAt,value
2023-02-02T00:01:57.993Z,97546.97
2023-02-02T00:04:25.704Z,97542.72
2023-02-02T00:06:52.386Z,97532.53
2023-02-02T00:09:19.515Z,97519.94
2023-02-02T00:11:46.770Z,97512.13
2023-02-02T00:14:13.617Z,97516.16
2023-02-02T00:16:43.272Z,97504.19
2023-02-02T00:19:14.276Z,97494.84
2023-02-02T00:21:41.130Z,97493.34
2023-02-02T00:24:08.734Z,97500.97
2023-02-02T00:26:35.789Z,97502.97
2023-02-02T00:29:02.550Z,97503.97
2023-02-02T00:31:29.057Z,97500.25
2023-02-02T00:33:55.638Z,97496.88
2023-02-02T00:36:22.163Z,97508.69
2023-02-02T00:38:49.111Z,97504.53
2023-02-02T00:41:15.989Z,97505.28
2023-02-02T00:43:42.650Z,97510.28
2023-02-02T00:46:17.514Z,97509.69
2023-02-02T00:48:44.064Z,97507.63
2023-02-02T00:51:10.547Z,97503.41
2023-02-02T00:53:36.974Z,97501.44
2023-02-02T00:56:03.540Z,97504.56
2023-02-02T00:58:30.027Z,97484.53
2023-02-02T01:00:56.660Z,97492.91
2023-02-02T01:03:23.239Z,97482.72
2023-02-02T01:05:51.554Z,97483.81
2023-02-02T01:08:18.336Z,97486.34
2023-02-02T01:10:44.790Z,97491.50
2023-02-02T01:13:11.278Z,97483.06
2023-02-02T01:15:37.776Z,97497.81
2023-02-02T01:18:04.283Z,97502.16
2023-02-02T01:20:31.754Z,97501.47
2023-02-02T01:22:58.239Z,97504.72
2023-02-02T01:25:24.921Z,97492.91
2023-02-02T01:27:51.597Z,97504.31
2023-02-02T01:30:18.162Z,97510.28
2023-02-02T01:32:44.631Z,97516.31
2023-02-02T01:35:11.208Z,97506.25
2023-02-02T01:37:38.660Z,97498.16
2023-02-02T01:40:05.482Z,97481.06
2023-02-02T01:42:31.932Z,97479.75
2023-02-02T01:45:04.523Z,97474.16
2023-02-02T01:47:33.866Z,97466.59
2023-02-02T01:50:00.964Z,97453.97
2023-02-02T01:52:28.852Z,97453.00
2023-02-02T01:55:00.058Z,97464.75
2023-02-02T01:57:46.636Z,97468.22
2023-02-02T02:00:14.608Z,97464.56
2023-02-02T02:02:43.017Z,97455.34
2023-02-02T02:05:10.279Z,97457.84
2023-02-02T02:07:40.121Z,97454.81
2023-02-02T02:10:06.916Z,97451.53
2023-02-02T02:12:33.358Z,97463.28
2023-02-02T02:15:18.546Z,97472.72
2023-02-02T02:17:45.386Z,97467.81
2023-02-02T02:20:49.361Z,97456.25
2023-02-02T02:23:50.071Z,97456.53
2023-02-02T02:26:35.569Z,97455.88
2023-02-02T02:29:04.339Z,97457.25
2023-02-02T02:31:32.290Z,97462.28
2023-02-02T02:34:15.093Z,97457.63
2023-02-02T02:36:41.557Z,97455.59
2023-02-02T02:39:12.949Z,97443.50
2023-02-02T02:41:43.926Z,97449.72
2023-02-02T02:44:12.378Z,97456.13
2023-02-02T02:46:39.041Z,97457.06
2023-02-02T02:49:08.871Z,97449.47
2023-02-02T02:51:38.489Z,97462.34
2023-02-02T02:54:05.400Z,97454.63
2023-02-02T02:56:55.245Z,97454.31
2023-02-02T02:59:27.632Z,97452.34
2023-02-02T03:02:16.924Z,97451.22
2023-02-02T03:04:53.947Z,97449.03
2023-02-02T03:07:23.838Z,97444.91
2023-02-02T03:09:51.744Z,97449.47
2023-02-02T03:12:18.303Z,97438.19
2023-02-02T03:14:44.751Z,97445.53
2023-02-02T03:17:11.191Z,97443.53
2023-02-02T03:19:37.637Z,97440.47
2023-02-02T03:22:04.067Z,97431.09
2023-02-02T03:24:30.526Z,97422.22
2023-02-02T03:26:57.339Z,97430.81
2023-02-02T03:29:25.326Z,97428.81
2023-02-02T03:31:51.857Z,97424.31
2023-02-02T03:34:18.300Z,97428.31
2023-02-02T03:36:44.751Z,97434.81
2023-02-02T03:39:11.172Z,97427.03
2023-02-02T03:41:37.624Z,97432.91
2023-02-02T03:44:04.154Z,97420.38
2023-02-02T03:46:30.662Z,97417.91
2023-02-02T03:48:57.128Z,97418.09
2023-02-02T03:51:23.621Z,97413.53
2023-02-02T03:53:50.095Z,97414.78
2023-02-02T03:56:16.798Z,97415.75
2023-02-02T03:58:43.224Z,97419.22
2023-02-02T04:01:13.289Z,97411.63
2023-02-02T04:03:39.773Z,97405.47
2023-02-02T04:06:06.471Z,97400.31
2023-02-02T04:08:34.073Z,97403.38
2023-02-02T04:11:00.798Z,97394.16
2023-02-02T04:13:27.296Z,97383.56
2023-02-02T04:16:00.585Z,97388.47
2023-02-02T04:18:27.537Z,97392.44
2023-02-02T04:21:00.896Z,97390.53
2023-02-02T04:23:28.673Z,97401.13
2023-02-02T04:25:55.195Z,97397.03
2023-02-02T04:28:22.602Z,97416.41
2023-02-02T04:30:49.453Z,97417.00
2023-02-02T04:33:16.162Z,97423.16
2023-02-02T04:35:43.199Z,97429.13
2023-02-02T04:38:10.134Z,97430.75
2023-02-02T04:40:40.182Z,97447.56
2023-02-02T04:43:06.748Z,97444.66
2023-02-02T04:45:33.306Z,97456.44
2023-02-02T04:47:59.801Z,97463.28
2023-02-02T04:50:26.274Z,97451.81
2023-02-02T04:52:52.698Z,97464.47
2023-02-02T04:55:19.175Z,97490.22
2023-02-02T04:57:45.670Z,97475.84
2023-02-02T05:00:12.586Z,97502.34
2023-02-02T05:02:39.612Z,97493.44
2023-02-02T05:05:07.600Z,97501.16
2023-02-02T05:07:34.079Z,97498.41
2023-02-02T05:10:02.924Z,97505.22
2023-02-02T05:12:29.330Z,97497.75
2023-02-02T05:14:55.756Z,97497.31
2023-02-02T05:17:22.171Z,97496.91
2023-02-02T05:19:48.619Z,97490.72
2023-02-02T05:22:15.047Z,97491.09
2023-02-02T05:24:41.451Z,97487.72
2023-02-02T05:27:07.868Z,97484.06
2023-02-02T05:29:34.325Z,97493.72
2023-02-02T05:32:00.834Z,97496.94
2023-02-02T05:34:27.532Z,97485.88
2023-02-02T05:36:54.016Z,97486.09
2023-02-02T05:39:20.500Z,97482.56
2023-02-02T05:41:46.970Z,97485.97
2023-02-02T05:44:14.364Z,97483.34
2023-02-02T05:46:41.729Z,97494.28
2023-02-02T05:49:12.571Z,97497.91
2023-02-02T05:51:40.927Z,97508.97
2023-02-02T05:54:07.383Z,97513.09
2023-02-02T05:56:33.840Z,97519.00
2023-02-02T05:59:00.338Z,97529.53
2023-02-02T06:01:26.884Z,97530.31
2023-02-02T06:03:53.408Z,97540.66
2023-02-02T06:06:19.910Z,97549.31
2023-02-02T06:08:46.347Z,97560.63
2023-02-02T06:11:14.159Z,97554.34
2023-02-02T06:13:40.972Z,97564.66
2023-02-02T06:16:07.692Z,97564.78
2023-02-02T06:18:35.087Z,97580.88
2023-02-02T06:21:01.986Z,97593.00
2023-02-02T06:23:28.497Z,97591.81
2023-02-02T06:25:54.975Z,97624.31
2023-02-02T06:28:21.387Z,97633.31
2023-02-02T06:30:47.960Z,97634.75
2023-02-02T06:33:14.499Z,97654.19
2023-02-02T06:35:40.898Z,97652.94
2023-02-02T06:38:07.347Z,97664.44
2023-02-02T06:40:33.887Z,97668.69
2023-02-02T06:43:01.260Z,97666.09
2023-02-02T06:45:28.772Z,97683.63
2023-02-02T06:47:58.463Z,97680.34
2023-02-02T06:50:24.890Z,97689.88
2023-02-02T06:52:51.840Z,97672.06
2023-02-02T06:55:18.604Z,97673.63
2023-02-02T06:57:45.795Z,97694.25
2023-02-02T07:00:12.907Z,97672.59
2023-02-02T07:02:39.609Z,97672.97
2023-02-02T07:05:06.146Z,97682.47
2023-02-02T07:07:33.040Z,97688.41
2023-02-02T07:09:59.487Z,97690.66
2023-02-02T07:12:27.051Z,97686.44
2023-02-02T07:14:54.011Z,97687.44
2023-02-02T07:17:20.471Z,97691.81
2023-02-02T07:19:46.885Z,97693.03
2023-02-02T07:22:13.327Z,97707.03
2023-02-02T07:24:39.811Z,97715.31
2023-02-02T07:27:06.269Z,97718.66
2023-02-02T07:29:32.867Z,97723.03
2023-02-02T07:31:59.364Z,97718.94
2023-02-02T07:34:25.915Z,97718.94
2023-02-02T07:36:52.340Z,97721.66
2023-02-02T07:39:18.768Z,97714.34
2023-02-02T07:41:45.204Z,97716.25
2023-02-02T07:44:24.692Z,97729.28
2023-02-02T07:46:51.653Z,97730.06
2023-02-02T07:49:18.598Z,97733.22
2023-02-02T07:51:47.753Z,97730.31
2023-02-02T07:54:14.683Z,97739.38
2023-02-02T07:56:41.149Z,97738.81
2023-02-02T07:59:07.588Z,97739.81
2023-02-02T08:01:34.022Z,97738.38
2023-02-02T08:04:00.629Z,97748.78
2023-02-02T08:06:28.699Z,97747.56
2023-02-02T08:08:55.723Z,97740.34
2023-02-02T08:11:22.842Z,97741.09
2023-02-02T08:13:50.304Z,97746.66
2023-02-02T08:16:17.092Z,97752.06
2023-02-02T08:18:43.965Z,97757.16
2023-02-02T08:21:10.889Z,97760.13
2023-02-02T08:23:37.980Z,97759.50
2023-02-02T08:26:08.848Z,97757.06
2023-02-02T08:28:36.402Z,97760.75
2023-02-02T08:31:10.222Z,97765.63
2023-02-02T08:33:38.550Z,97771.84
2023-02-02T08:36:05.558Z,97770.50
2023-02-02T08:38:32.023Z,97781.47
2023-02-02T08:41:04.329Z,97779.22
2023-02-02T08:43:30.799Z,97800.56
2023-02-02T08:46:01.532Z,97789.81
2023-02-02T08:48:31.476Z,97792.88
2023-02-02T08:50:58.765Z,97798.59
2023-02-02T08:53:25.825Z,97812.13
2023-02-02T08:56:02.770Z,97819.75
2023-02-02T08:58:29.764Z,97826.88
2023-02-02T09:01:03.801Z,97825.16
2023-02-02T09:03:30.258Z,97832.66
2023-02-02T09:05:56.679Z,97831.22
2023-02-02T09:08:23.167Z,97842.06
2023-02-02T09:10:49.755Z,97847.81
2023-02-02T09:13:16.198Z,97851.75
2023-02-02T09:15:42.617Z,97845.41
2023-02-02T09:18:09.051Z,97839.72
2023-02-02T09:20:35.637Z,97844.50
2023-02-02T09:23:02.059Z,97843.84
2023-02-02T09:25:28.599Z,97847.38
2023-02-02T09:27:55.038Z,97848.09
2023-02-02T09:30:21.654Z,97855.09
2023-02-02T09:32:51.257Z,97859.50
2023-02-02T09:35:18.096Z,97852.78
2023-02-02T09:37:45.333Z,97856.41
2023-02-02T09:40:18.835Z,97854.31
2023-02-02T09:42:59.212Z,97854.44
2023-02-02T09:45:36.238Z,97856.59
2023-02-02T09:48:25.766Z,97847.91
2023-02-02T09:50:57.989Z,97845.53
2023-02-02T09:53:55.254Z,97869.50
2023-02-02T09:56:31.263Z,97860.63
2023-02-02T09:59:10.111Z,97869.03
2023-02-02T10:01:44.848Z,97867.91
2023-02-02T10:04:16.619Z,97872.53
2023-02-02T10:06:51.600Z,97870.00
2023-02-02T10:09:34.069Z,97878.34
2023-02-02T10:12:00.616Z,97867.09
2023-02-02T10:14:31.272Z,97876.19
2023-02-02T10:17:00.430Z,97870.84
2023-02-02T10:19:29.263Z,97880.66
2023-02-02T10:22:12.917Z,97869.00
2023-02-02T10:24:39.604Z,97874.50
2023-02-02T10:27:11.242Z,97875.47
2023-02-02T10:29:49.218Z,97874.94
2023-02-02T10:32:24.802Z,97869.94
2023-02-02T10:35:12.652Z,97871.28
2023-02-02T10:37:46.426Z,97876.16
2023-02-02T10:40:17.731Z,97875.31
2023-02-02T10:43:26.062Z,97869.34
2023-02-02T10:45:53.156Z,97867.97
2023-02-02T10:48:22.166Z,97868.28
2023-02-02T10:50:50.895Z,97866.22
2023-02-02T10:53:17.451Z,97851.66
2023-02-02T10:55:43.859Z,97855.59
2023-02-02T10:58:13.039Z,97849.63
2023-02-02T11:00:50.642Z,97855.41
2023-02-02T11:03:19.647Z,97847.72
2023-02-02T11:06:05.299Z,97850.06
2023-02-02T11:08:39.823Z,97857.78
2023-02-02T11:11:12.437Z,97847.81
2023-02-02T11:13:51.725Z,97845.09
2023-02-02T11:16:19.241Z,97840.63
2023-02-02T11:18:45.993Z,97836.59
2023-02-02T11:21:19.837Z,97829.44
2023-02-02T11:23:53.680Z,97824.56
2023-02-02T11:26:20.419Z,97824.00
2023-02-02T11:28:48.952Z,97817.41
2023-02-02T11:31:37.504Z,97819.72
2023-02-02T11:34:21.494Z,97824.34
2023-02-02T11:36:58.593Z,97819.63
2023-02-02T11:39:26.201Z,97802.16
2023-02-02T11:42:21.807Z,97811.84
2023-02-02T11:44:52.934Z,97799.28
2023-02-02T11:47:26.027Z,97804.84
2023-02-02T11:49:54.516Z,97809.72
2023-02-02T11:52:26.117Z,97805.56
2023-02-02T11:54:55.602Z,97803.34
2023-02-02T11:57:23.290Z,97799.75
2023-02-02T11:59:51.268Z,97800.72
2023-02-02T12:02:20.590Z,97797.53
2023-02-02T12:04:48.049Z,97798.78
2023-02-02T12:07:18.144Z,97799.28
2023-02-02T12:09:44.987Z,97794.66
2023-02-02T12:12:20.513Z,97795.88
2023-02-02T12:15:05.390Z,97798.50
2023-02-02T12:17:42.106Z,97785.81
2023-02-02T12:20:36.519Z,97791.16
2023-02-02T12:23:09.007Z,97792.59
2023-02-02T12:25:59.144Z,97796.41
2023-02-02T12:28:31.717Z,97794.97
2023-02-02T12:31:01.248Z,97795.63
2023-02-02T12:33:39.204Z,97796.03
2023-02-02T12:36:08.781Z,97789.56
2023-02-02T12:38:57.675Z,97798.03
2023-02-02T12:41:24.107Z,97795.19
2023-02-02T12:43:55.524Z,97795.50
2023-02-02T12:46:30.796Z,97790.09
2023-02-02T12:49:20.699Z,97791.44
2023-02-02T12:52:16.025Z,97794.66
2023-02-02T12:54:54.208Z,97791.75
2023-02-02T12:57:42.049Z,97788.47
2023-02-02T13:00:30.010Z,97789.91
2023-02-02T13:02:56.413Z,97782.66
2023-02-02T13:05:29.420Z,97787.53
2023-02-02T13:07:57.532Z,97785.31
2023-02-02T13:10:38.910Z,97788.69
2023-02-02T13:13:25.657Z,97779.25
2023-02-02T13:15:55.023Z,97783.41
2023-02-02T13:18:21.507Z,97783.63
2023-02-02T13:21:15.414Z,97780.94
2023-02-02T13:23:50.613Z,97788.22
2023-02-02T13:26:21.489Z,97794.94
2023-02-02T13:29:01.649Z,97791.53
2023-02-02T13:31:43.938Z,97793.84
2023-02-02T13:34:36.096Z,97786.91
2023-02-02T13:37:08.378Z,97789.41
2023-02-02T13:39:38.424Z,97781.13
2023-02-02T13:42:16.747Z,97797.44
2023-02-02T13:44:47.906Z,97778.53
2023-02-02T13:47:24.424Z,97783.13
2023-02-02T13:49:52.773Z,97795.03
2023-02-02T13:52:28.155Z,97786.41
2023-02-02T13:55:18.475Z,97792.88
2023-02-02T13:58:04.514Z,97787.94
2023-02-02T14:00:34.875Z,97793.19
2023-02-02T14:03:05.075Z,97797.13
2023-02-02T14:05:31.518Z,97793.50
2023-02-02T14:08:02.933Z,97803.94
2023-02-02T14:10:31.593Z,97798.31
2023-02-02T14:13:06.690Z,97806.88
2023-02-02T14:15:40.672Z,97797.81
2023-02-02T14:18:07.282Z,97804.63
2023-02-02T14:20:40.028Z,97801.06
2023-02-02T14:23:26.395Z,97806.63
2023-02-02T14:26:06.353Z,97809.19
2023-02-02T14:28:40.760Z,97818.25
2023-02-02T14:31:17.484Z,97819.00
2023-02-02T14:33:47.507Z,97818.56
2023-02-02T14:36:15.423Z,97821.44
2023-02-02T14:39:04.885Z,97819.47
2023-02-02T14:42:00.936Z,97819.63
2023-02-02T14:44:28.330Z,97828.38
2023-02-02T14:46:54.853Z,97825.94
2023-02-02T14:49:24.512Z,97832.53
2023-02-02T14:51:55.969Z,97840.22
2023-02-02T14:54:27.353Z,97831.34
2023-02-02T14:56:56.768Z,97838.81
2023-02-02T14:59:35.626Z,97842.19
2023-02-02T15:02:07.538Z,97842.22
2023-02-02T15:04:34.089Z,97838.59
2023-02-02T15:07:21.359Z,97841.16
2023-02-02T15:09:48.138Z,97829.63
2023-02-02T15:12:24.697Z,97844.63
2023-02-02T15:14:57.094Z,97841.94
2023-02-02T15:17:32.891Z,97851.44
2023-02-02T15:20:02.497Z,97848.25
2023-02-02T15:22:47.464Z,97858.91
2023-02-02T15:25:25.854Z,97852.81
2023-02-02T15:28:01.425Z,97848.66
2023-02-02T15:30:28.984Z,97862.84
2023-02-02T15:32:56.476Z,97855.25
2023-02-02T15:35:30.213Z,97858.19
2023-02-02T15:38:01.296Z,97854.66
2023-02-02T15:40:29.446Z,97860.59
2023-02-02T15:42:58.902Z,97869.34
2023-02-02T15:45:28.420Z,97873.81
2023-02-02T15:47:56.009Z,97882.13
2023-02-02T15:50:22.583Z,97873.81
2023-02-02T15:52:50.397Z,97871.53
2023-02-02T15:55:23.243Z,97889.75
2023-02-02T15:57:54.079Z,97889.84
2023-02-02T16:00:35.782Z,97893.50
2023-02-02T16:03:14.224Z,97906.50
2023-02-02T16:05:42.953Z,97902.66
2023-02-02T16:08:15.417Z,97911.84
2023-02-02T16:10:42.155Z,97909.69
2023-02-02T16:13:17.438Z,97909.25
2023-02-02T16:15:54.053Z,97919.78
2023-02-02T16:18:20.568Z,97926.69
2023-02-02T16:20:47.425Z,97923.09
2023-02-02T16:23:17.767Z,97927.47
2023-02-02T16:25:49.566Z,97941.00
2023-02-02T16:28:18.278Z,97934.72
2023-02-02T16:30:45.614Z,97952.84
2023-02-02T16:33:28.771Z,97948.34
2023-02-02T16:35:55.293Z,97959.72
2023-02-02T16:38:26.674Z,97955.88
2023-02-02T16:41:10.124Z,97953.81
2023-02-02T16:43:38.117Z,97967.06
2023-02-02T16:46:07.324Z,97955.50
2023-02-02T16:48:44.959Z,97967.84
2023-02-02T16:51:17.870Z,97970.16
2023-02-02T16:53:46.518Z,97963.81
2023-02-02T16:56:31.811Z,97973.22
2023-02-02T16:59:06.398Z,97967.53
2023-02-02T17:01:36.343Z,97974.47
2023-02-02T17:04:03.087Z,97986.16
2023-02-02T17:06:41.743Z,97989.50
2023-02-02T17:09:37.395Z,97992.97
2023-02-02T17:12:33.689Z,97989.59
2023-02-02T17:15:05.994Z,98031.97
2023-02-02T17:17:32.552Z,98018.28
2023-02-02T17:19:59.005Z,98026.72
2023-02-02T17:22:27.509Z,98042.69
2023-02-02T17:24:54.040Z,98042.47
2023-02-02T17:27:23.303Z,98047.34
2023-02-02T17:29:49.797Z,98047.50
2023-02-02T17:32:16.232Z,98054.38
2023-02-02T17:34:42.732Z,98057.78
2023-02-02T17:37:09.379Z,98064.63
2023-02-02T17:39:35.811Z,98061.59
2023-02-02T17:42:02.257Z,98072.13
2023-02-02T17:44:28.780Z,98082.75
2023-02-02T17:46:55.309Z,98077.75
2023-02-02T17:49:21.779Z,98082.31
2023-02-02T17:51:48.332Z,98087.91
2023-02-02T17:54:15.569Z,98080.59
2023-02-02T17:56:42.735Z,98092.53
2023-02-02T17:59:09.669Z,98085.88
2023-02-02T18:01:39.245Z,98094.66
2023-02-02T18:04:06.279Z,98105.69
2023-02-02T18:06:32.775Z,98114.78
2023-02-02T18:08:59.221Z,98120.06
2023-02-02T18:11:25.659Z,98122.59
2023-02-02T18:13:52.175Z,98129.38
2023-02-02T18:16:19.822Z,98134.94
2023-02-02T18:18:46.324Z,98129.41
2023-02-02T18:21:14.049Z,98132.84
2023-02-02T18:23:40.957Z,98149.78
2023-02-02T18:26:11.661Z,98147.13
2023-02-02T18:28:38.503Z,98156.38
2023-02-02T18:31:09.272Z,98162.53
2023-02-02T18:33:37.055Z,98162.41
2023-02-02T18:36:06.440Z,98167.84
2023-02-02T18:38:32.916Z,98175.16
2023-02-02T18:40:59.331Z,98173.72
2023-02-02T18:43:25.768Z,98176.56
2023-02-02T18:45:59.461Z,98185.72
2023-02-02T18:48:25.927Z,98183.13
2023-02-02T18:50:52.404Z,98192.72
2023-02-02T18:53:18.864Z,98189.22
2023-02-02T18:55:45.272Z,98190.19
2023-02-02T18:58:14.325Z,98193.09
2023-02-02T19:00:41.102Z,98197.47
2023-02-02T19:03:07.897Z,98207.19
2023-02-02T19:05:52.859Z,98199.97
2023-02-02T19:08:19.785Z,98197.50
2023-02-02T19:10:46.264Z,98197.88
2023-02-02T19:13:18.284Z,98197.28
2023-02-02T19:15:45.652Z,98208.16
2023-02-02T19:18:19.523Z,98208.31
2023-02-02T19:20:46.448Z,98211.59
2023-02-02T19:23:14.496Z,98215.25
2023-02-02T19:25:41.687Z,98222.78
2023-02-02T19:28:25.277Z,98221.44
2023-02-02T19:30:53.362Z,98233.06
2023-02-02T19:33:20.706Z,98216.72
2023-02-02T19:35:49.450Z,98221.66
2023-02-02T19:38:17.989Z,98229.56
2023-02-02T19:40:44.574Z,98230.78
2023-02-02T19:43:25.170Z,98232.69
2023-02-02T19:45:52.035Z,98243.53
2023-02-02T19:48:19.619Z,98244.09
2023-02-02T19:50:46.642Z,98250.16
2023-02-02T19:53:18.862Z,98252.44
2023-02-02T19:55:45.347Z,98251.66
2023-02-02T19:58:22.161Z,98257.09
2023-02-02T20:00:53.089Z,98260.44
2023-02-02T20:03:36.064Z,98263.50
2023-02-02T20:06:03.907Z,98269.97
2023-02-02T20:08:39.139Z,98263.88
2023-02-02T20:11:19.025Z,98277.00
2023-02-02T20:13:48.264Z,98273.56
2023-02-02T20:16:17.765Z,98268.06
2023-02-02T20:18:45.275Z,98284.78
2023-02-02T20:21:32.376Z,98289.78
2023-02-02T20:23:58.859Z,98294.59
2023-02-02T20:26:27.027Z,98294.69
2023-02-02T20:28:57.819Z,98293.19
2023-02-02T20:31:26.169Z,98295.94
2023-02-02T20:33:54.016Z,98297.00
2023-02-02T20:36:26.877Z,98297.19
2023-02-02T20:38:53.440Z,98299.75
2023-02-02T20:41:19.949Z,98301.38
2023-02-02T20:43:46.435Z,98299.66
2023-02-02T20:46:13.350Z,98312.75
2023-02-02T20:48:39.804Z,98315.41
2023-02-02T20:51:06.290Z,98318.13
2023-02-02T20:53:32.807Z,98315.38
2023-02-02T20:56:02.094Z,98312.41
2023-02-02T20:58:28.584Z,98318.41
2023-02-02T21:00:55.143Z,98308.19
2023-02-02T21:03:21.719Z,98314.66
2023-02-02T21:05:48.231Z,98320.38
2023-02-02T21:08:14.807Z,98323.22
2023-02-02T21:10:41.315Z,98314.06
2023-02-02T21:13:07.785Z,98318.78
2023-02-02T21:15:34.305Z,98323.56
2023-02-02T21:18:00.840Z,98334.06
2023-02-02T21:20:27.638Z,98334.63
2023-02-02T21:22:56.073Z,98341.84
2023-02-02T21:25:22.534Z,98346.69
2023-02-02T21:27:55.694Z,98343.09
2023-02-02T21:30:22.375Z,98345.75
2023-02-02T21:32:48.914Z,98349.94
2023-02-02T21:35:15.735Z,98352.94
2023-02-02T21:37:44.113Z,98343.97
2023-02-02T21:40:15.040Z,98346.44
2023-02-02T21:42:47.968Z,98346.59
2023-02-02T21:45:20.422Z,98349.41
2023-02-02T21:47:57.715Z,98350.63
2023-02-02T21:50:29.141Z,98355.97
2023-02-02T21:53:12.352Z,98362.44
2023-02-02T21:55:39.283Z,98363.16
2023-02-02T21:58:17.244Z,98367.38
2023-02-02T22:00:43.742Z,98372.44
2023-02-02T22:03:21.012Z,98376.03
2023-02-02T22:05:47.430Z,98375.88
2023-02-02T22:08:25.120Z,98373.13
2023-02-02T22:10:51.579Z,98373.28
2023-02-02T22:13:19.819Z,98371.06
2023-02-02T22:15:47.396Z,98375.16
2023-02-02T22:18:18.720Z,98380.91
2023-02-02T22:20:47.432Z,98388.91
2023-02-02T22:23:18.280Z,98386.00
2023-02-02T22:25:46.461Z,98390.28
2023-02-02T22:28:18.977Z,98386.66
2023-02-02T22:30:45.692Z,98378.06
2023-02-02T22:33:13.147Z,98379.44
2023-02-02T22:35:40.105Z,98387.66
2023-02-02T22:38:06.795Z,98381.78
2023-02-02T22:40:33.285Z,98378.94
2023-02-02T22:43:01.058Z,98384.94
2023-02-02T22:45:27.845Z,98380.63
2023-02-02T22:47:54.419Z,98385.75
2023-02-02T22:50:22.387Z,98386.91
2023-02-02T22:52:48.885Z,98392.94
2023-02-02T22:55:15.712Z,98401.72
2023-02-02T22:57:42.233Z,98396.91
2023-02-02T23:00:15.524Z,98392.06
2023-02-02T23:02:42.495Z,98390.56
2023-02-02T23:05:10.370Z,98390.22
2023-02-02T23:07:36.804Z,98384.03
2023-02-02T23:10:03.445Z,98381.78
2023-02-02T23:12:29.973Z,98390.41
2023-02-02T23:14:56.434Z,98383.31
2023-02-02T23:17:22.934Z,98388.78
2023-02-02T23:19:49.407Z,98383.22
2023-02-02T23:22:16.427Z,98383.22
2023-02-02T23:24:44.460Z,98374.66
2023-02-02T23:27:12.986Z,98381.50
2023-02-02T23:29:39.583Z,98382.72
2023-02-02T23:32:07.040Z,98381.88
2023-02-02T23:34:33.752Z,98388.25
2023-02-02T23:37:00.208Z,98396.72
2023-02-02T23:39:26.664Z,98396.47
2023-02-02T23:41:53.158Z,98389.28
2023-02-02T23:44:19.593Z,98387.22
2023-02-02T23:46:46.192Z,98397.63
2023-02-02T23:49:12.905Z,98394.84
2023-02-02T23:51:39.458Z,98407.44
2023-02-02T23:54:06.119Z,98406.09
2023-02-02T23:56:32.808Z,98412.09
2023-02-02T23:58:59.232Z,98404.25
